Time;durP1;ratioP1;P1;durP2;ratioP2;P2;SDS_P1;SDS_P2;PMS_P1;PMS_P2;Temp;Humidity;BMP_temperature;BMP_pressure;BME280_temperature;BME280_humidity;BME280_pressure;Samples;Min_cycle;Max_cycle;Signal;HPM_P1;HPM_P2
2021/04/02 00:00:49;;;;;;;37.30;19.27;;;11.60;99.90;;;;;;5094290;28;20413;-84
2021/04/02 00:03:19;;;;;;;36.70;19.17;;;11.60;99.90;;;;;;5094350;28;20444;-84
2021/04/02 00:05:46;;;;;;;38.90;19.30;;;11.60;99.90;;;;;;5094458;28;20432;-84
2021/04/02 00:08:13;;;;;;;36.80;19.60;;;11.50;99.90;;;;;;5093817;28;20490;-85
2021/04/02 00:10:46;;;;;;;35.27;19.67;;;11.50;99.90;;;;;;5094180;28;20432;-84
2021/04/02 00:13:13;;;;;;;39.97;20.13;;;11.40;99.90;;;;;;5094173;28;20443;-84
2021/04/02 00:15:39;;;;;;;35.63;19.23;;;11.40;99.90;;;;;;5093661;28;20436;-84
2021/04/02 00:18:08;;;;;;;35.50;19.47;;;11.40;99.90;;;;;;5093758;28;20446;-84
2021/04/02 00:20:35;;;;;;;41.70;19.70;;;11.40;99.90;;;;;;5094402;28;20448;-84
2021/04/02 00:23:01;;;;;;;41.00;19.30;;;11.40;99.90;;;;;;5093963;28;20404;-84
2021/04/02 00:25:27;;;;;;;39.83;20.63;;;11.30;99.90;;;;;;5093831;28;20954;-84
2021/04/02 00:27:54;;;;;;;34.60;19.87;;;11.30;99.90;;;;;;5093869;28;20484;-84
2021/04/02 00:30:24;;;;;;;38.70;21.40;;;11.30;99.90;;;;;;5093997;28;20459;-84
2021/04/02 00:32:50;;;;;;;41.97;22.00;;;11.30;99.90;;;;;;5093926;28;20440;-84
2021/04/02 00:35:16;;;;;;;40.60;20.33;;;11.20;99.90;;;;;;5093818;28;20454;-84
2021/04/02 00:37:43;;;;;;;40.10;20.03;;;11.20;99.90;;;;;;5093922;28;20468;-84
2021/04/02 00:40:16;;;;;;;38.33;20.20;;;11.20;99.90;;;;;;5093951;28;20483;-84
2021/04/02 00:42:45;;;;;;;39.20;20.70;;;11.20;99.90;;;;;;5093662;28;20439;-84
2021/04/02 00:45:13;;;;;;;42.43;21.00;;;11.10;99.90;;;;;;5093808;28;20839;-84
2021/04/02 00:47:40;;;;;;;39.97;21.10;;;11.10;99.90;;;;;;5093382;28;20491;-84
2021/04/02 00:50:11;;;;;;;37.33;19.67;;;11.10;99.90;;;;;;5095809;28;20483;-84
2021/04/02 00:52:38;;;;;;;43.40;20.40;;;11.10;99.90;;;;;;5097782;28;20513;-84
2021/04/02 00:55:06;;;;;;;39.00;21.03;;;11.10;99.90;;;;;;5097870;28;20451;-84
2021/04/02 00:57:32;;;;;;;40.77;19.73;;;11.10;99.90;;;;;;5097759;28;20443;-84
2021/04/02 00:59:58;;;;;;;45.00;22.10;;;11.10;99.90;;;;;;5097759;28;20468;-84
2021/04/02 01:02:27;;;;;;;42.97;22.97;;;11.00;99.90;;;;;;5097825;28;20456;-84
2021/04/02 01:04:54;;;;;;;40.50;20.77;;;11.00;99.90;;;;;;5097814;28;20456;-81
2021/04/02 01:07:20;;;;;;;39.40;22.43;;;11.00;99.90;;;;;;5096955;28;20451;-81
2021/04/02 01:09:46;;;;;;;40.30;20.87;;;10.90;99.90;;;;;;5096695;28;20463;-81
2021/04/02 01:12:13;;;;;;;44.50;21.57;;;10.90;99.90;;;;;;5096647;28;20450;-81
2021/04/02 01:14:40;;;;;;;41.10;21.50;;;10.80;99.90;;;;;;5097051;28;20505;-81
2021/04/02 01:17:06;;;;;;;39.27;21.07;;;10.80;99.90;;;;;;5099328;28;20943;-81
2021/04/02 01:19:38;;;;;;;44.63;22.70;;;10.80;99.90;;;;;;5100949;28;20499;-81
2021/04/02 01:22:08;;;;;;;47.00;22.47;;;10.80;99.90;;;;;;5102937;28;20431;-82
2021/04/02 01:24:48;;;;;;;41.60;21.10;;;10.80;99.90;;;;;;5102287;28;20431;-81
2021/04/02 01:27:27;;;;;;;38.10;21.47;;;10.80;99.90;;;;;;5102682;28;20439;-81
2021/04/02 01:29:56;;;;;;;42.40;22.37;;;10.80;99.90;;;;;;5101184;28;20448;-81
2021/04/02 01:32:26;;;;;;;36.17;20.60;;;10.80;99.90;;;;;;5098409;28;20772;-81
2021/04/02 01:34:56;;;;;;;41.10;20.70;;;10.80;99.90;;;;;;5099264;28;20439;-80
2021/04/02 01:37:28;;;;;;;42.83;21.27;;;10.80;99.90;;;;;;5100002;28;20431;-80
2021/04/02 01:39:58;;;;;;;39.17;20.80;;;10.70;99.90;;;;;;5100681;28;20460;-81
2021/04/02 01:42:27;;;;;;;39.50;20.70;;;10.70;99.90;;;;;;5103176;28;20439;-81
2021/04/02 01:44:56;;;;;;;31.70;20.57;;;10.70;99.90;;;;;;5100347;28;20513;-81
2021/04/02 01:47:24;;;;;;;35.07;20.27;;;10.70;99.90;;;;;;5100130;28;20460;-82
2021/04/02 01:49:53;;;;;;;38.40;21.03;;;10.60;99.90;;;;;;5102316;28;20467;-81
2021/04/02 01:52:22;;;;;;;36.87;20.80;;;10.60;99.90;;;;;;5107994;28;20409;-81
2021/04/02 01:54:49;;;;;;;38.83;22.83;;;10.60;99.90;;;;;;5101886;28;20443;-81
2021/04/02 01:57:16;;;;;;;37.17;20.33;;;10.60;99.90;;;;;;5099392;28;20505;-80
2021/04/02 01:59:44;;;;;;;36.40;19.60;;;10.50;99.90;;;;;;5098043;28;20468;-81
2021/04/02 02:02:11;;;;;;;43.07;21.90;;;10.50;99.90;;;;;;5096554;28;20912;-81
2021/04/02 02:04:39;;;;;;;35.23;20.60;;;10.50;99.90;;;;;;5097052;28;20453;-81
2021/04/02 02:07:06;;;;;;;38.53;21.07;;;10.40;99.90;;;;;;5096053;28;20459;-81
2021/04/02 02:09:36;;;;;;;35.80;20.57;;;10.40;99.90;;;;;;5096849;28;21010;-81
2021/04/02 02:12:05;;;;;;;42.80;21.13;;;10.30;99.90;;;;;;5096614;28;20420;-81
2021/04/02 02:14:34;;;;;;;34.50;20.50;;;10.30;99.90;;;;;;5096477;28;20937;-80
2021/04/02 02:17:03;;;;;;;42.30;22.17;;;10.30;99.90;;;;;;5095731;28;20435;-81
2021/04/02 02:19:34;;;;;;;36.40;20.30;;;10.20;99.90;;;;;;5096573;28;20497;-81
2021/04/02 02:22:04;;;;;;;37.50;21.47;;;10.20;99.90;;;;;;5096624;28;20463;-81
2021/04/02 02:24:31;;;;;;;39.00;21.50;;;10.20;99.90;;;;;;5096985;28;20789;-81
2021/04/02 02:26:57;;;;;;;44.47;22.60;;;10.10;99.90;;;;;;5095873;28;20769;-80
2021/04/02 02:29:24;;;;;;;39.93;20.50;;;10.10;99.90;;;;;;5096310;28;20491;-80
2021/04/02 02:31:51;;;;;;;38.20;21.67;;;10.00;99.90;;;;;;5096259;28;20432;-81
2021/04/02 02:34:18;;;;;;;39.13;22.33;;;10.10;99.90;;;;;;5095990;28;20440;-81
2021/04/02 02:36:45;;;;;;;36.73;21.20;;;10.10;99.90;;;;;;5096578;28;20443;-81
2021/04/02 02:39:14;;;;;;;34.60;19.70;;;10.00;99.90;;;;;;5095195;28;20467;-81
2021/04/02 02:41:41;;;;;;;31.47;19.03;;;10.00;99.90;;;;;;5095403;28;20888;-80
2021/04/02 02:44:07;;;;;;;31.90;16.90;;;10.00;99.90;;;;;;5095210;28;20459;-81
2021/04/02 02:46:34;;;;;;;36.17;19.57;;;10.00;99.90;;;;;;5095031;28;20480;-81
2021/04/02 02:49:04;;;;;;;37.73;18.20;;;10.00;99.90;;;;;;5094683;28;20848;-81
2021/04/02 02:51:33;;;;;;;31.87;19.00;;;9.90;99.90;;;;;;5094779;28;20444;-81
2021/04/02 02:54:03;;;;;;;33.43;19.20;;;9.90;99.90;;;;;;5094552;28;20429;-81
2021/04/02 02:56:31;;;;;;;31.20;18.03;;;9.80;99.90;;;;;;5095489;28;20783;-81
2021/04/02 02:59:00;;;;;;;33.80;19.90;;;9.70;99.90;;;;;;5094664;28;20460;-81
2021/04/02 03:01:27;;;;;;;31.20;19.97;;;9.70;99.90;;;;;;5094764;28;20424;-80
2021/04/02 03:03:54;;;;;;;30.37;19.80;;;9.60;99.90;;;;;;5094700;28;20448;-81
2021/04/02 03:06:23;;;;;;;32.67;20.47;;;9.60;99.90;;;;;;5094657;28;20447;-81
2021/04/02 03:08:52;;;;;;;37.20;20.67;;;9.50;99.90;;;;;;5094538;28;20487;-81
2021/04/02 03:11:21;;;;;;;38.17;20.77;;;9.50;99.90;;;;;;5094637;28;20409;-81
2021/04/02 03:13:49;;;;;;;37.27;19.87;;;9.50;99.90;;;;;;5095069;28;20456;-81
2021/04/02 03:16:16;;;;;;;35.10;19.90;;;9.50;99.90;;;;;;5094249;28;20890;-81
2021/04/02 03:18:44;;;;;;;35.47;19.27;;;9.50;99.90;;;;;;5094466;28;20464;-81
2021/04/02 03:21:11;;;;;;;34.43;19.83;;;9.40;99.90;;;;;;5094574;28;20439;-81
2021/04/02 03:23:38;;;;;;;31.40;18.27;;;9.40;99.90;;;;;;5093988;28;20938;-81
2021/04/02 03:26:05;;;;;;;34.03;17.73;;;9.40;99.90;;;;;;5094378;28;20806;-81
2021/04/02 03:28:32;;;;;;;35.43;19.37;;;9.30;99.90;;;;;;5093852;28;20995;-81
2021/04/02 03:30:59;;;;;;;31.60;19.03;;;9.30;99.90;;;;;;5094384;28;20409;-81
2021/04/02 03:33:27;;;;;;;30.60;15.90;;;9.20;99.90;;;;;;5094234;28;20444;-81
2021/04/02 03:35:57;;;;;;;28.03;16.53;;;9.20;99.90;;;;;;5094152;28;20455;-81
2021/04/02 03:38:26;;;;;;;38.40;17.30;;;9.10;99.90;;;;;;5094907;28;20460;-81
2021/04/02 03:40:54;;;;;;;28.10;15.70;;;9.00;99.90;;;;;;5094078;28;20429;-81
2021/04/02 03:43:22;;;;;;;25.13;15.73;;;9.00;99.90;;;;;;5093870;28;20432;-81
2021/04/02 03:45:50;;;;;;;23.60;14.50;;;9.00;99.90;;;;;;5094004;28;20821;-81
2021/04/02 03:48:18;;;;;;;21.77;11.83;;;9.00;99.90;;;;;;5093452;28;20516;-81
2021/04/02 03:50:50;;;;;;;16.70;10.20;;;8.90;99.90;;;;;;5093778;28;20428;-81
2021/04/02 03:53:22;;;;;;;20.87;10.70;;;8.90;99.90;;;;;;5093492;28;20549;-80
2021/04/02 03:55:51;;;;;;;16.13;8.80;;;9.00;99.90;;;;;;5093872;28;20553;-81
2021/04/02 03:58:19;;;;;;;14.50;8.93;;;9.00;99.90;;;;;;5093487;28;20880;-81
2021/04/02 04:00:49;;;;;;;11.40;8.47;;;9.10;99.90;;;;;;5093786;28;20454;-81
2021/04/02 04:03:18;;;;;;;12.13;8.50;;;9.10;99.90;;;;;;5094176;28;20448;-81
2021/04/02 04:05:48;;;;;;;14.33;6.90;;;9.10;99.90;;;;;;5093514;28;20459;-81
2021/04/02 04:08:15;;;;;;;11.40;6.33;;;9.10;99.90;;;;;;5093590;28;20528;-81
2021/04/02 04:10:43;;;;;;;8.87;6.10;;;9.00;99.90;;;;;;5093583;28;20442;-81
2021/04/02 04:13:13;;;;;;;11.67;6.53;;;9.00;99.90;;;;;;5093440;28;20456;-81
2021/04/02 04:15:41;;;;;;;9.13;5.80;;;9.00;99.90;;;;;;5094003;28;20428;-81
2021/04/02 04:18:08;;;;;;;7.60;4.60;;;8.90;99.90;;;;;;5093326;28;20424;-81
2021/04/02 04:20:36;;;;;;;9.00;4.93;;;8.90;99.90;;;;;;5093228;28;20412;-80
2021/04/02 04:23:04;;;;;;;6.43;4.33;;;8.80;99.90;;;;;;5093057;28;21002;-81
2021/04/02 04:25:32;;;;;;;5.97;4.20;;;8.70;99.90;;;;;;5092784;28;20448;-80
2021/04/02 04:27:59;;;;;;;8.97;4.37;;;8.70;99.90;;;;;;5093059;28;20837;-81
2021/04/02 04:30:26;;;;;;;5.50;3.80;;;8.60;99.90;;;;;;5093992;28;20452;-81
2021/04/02 04:32:55;;;;;;;5.67;3.67;;;8.50;99.90;;;;;;5093318;28;20443;-80
2021/04/02 04:35:22;;;;;;;4.73;3.63;;;8.50;99.90;;;;;;5093105;28;20784;-81
2021/04/02 04:37:51;;;;;;;9.13;3.33;;;8.40;99.90;;;;;;5092804;28;20943;-81
2021/04/02 04:40:19;;;;;;;5.10;3.10;;;8.40;99.90;;;;;;5093156;28;20471;-82
2021/04/02 04:42:47;;;;;;;4.47;2.43;;;8.40;99.90;;;;;;5092988;28;20443;-81
2021/04/02 04:45:17;;;;;;;5.00;2.90;;;8.40;99.90;;;;;;5093083;28;20475;-81
2021/04/02 04:47:43;;;;;;;4.90;2.90;;;8.40;99.90;;;;;;5092742;28;20468;-81
2021/04/02 04:50:11;;;;;;;2.67;2.47;;;8.30;99.90;;;;;;5092716;28;20441;-81
2021/04/02 04:52:43;;;;;;;3.77;3.23;;;8.30;99.90;;;;;;5092945;28;20447;-81
2021/04/02 04:55:13;;;;;;;4.57;2.80;;;8.20;99.90;;;;;;5092990;28;20428;-81
2021/04/02 04:57:43;;;;;;;6.43;2.37;;;8.20;99.90;;;;;;5093036;28;20454;-81
2021/04/02 05:00:11;;;;;;;2.90;2.50;;;8.10;99.90;;;;;;5092818;28;20881;-81
2021/04/02 05:02:42;;;;;;;4.57;2.63;;;8.10;99.90;;;;;;5092967;28;20527;-81
2021/04/02 05:05:13;;;;;;;3.87;2.40;;;8.00;99.90;;;;;;5093000;28;20432;-81
2021/04/02 05:07:41;;;;;;;5.83;2.63;;;7.90;99.90;;;;;;5093048;28;20413;-81
2021/04/02 05:10:09;;;;;;;4.00;2.00;;;7.90;99.90;;;;;;5092965;28;20464;-81
2021/04/02 05:12:38;;;;;;;2.80;1.73;;;7.80;99.90;;;;;;5092712;28;20965;-81
2021/04/02 05:15:06;;;;;;;5.53;2.43;;;7.90;99.90;;;;;;5092738;28;20448;-81
2021/04/02 05:17:35;;;;;;;4.40;2.10;;;7.80;99.90;;;;;;5092497;28;20448;-81
2021/04/02 05:20:01;;;;;;;3.40;2.03;;;7.80;99.90;;;;;;5092894;28;20467;-81
2021/04/02 05:22:28;;;;;;;2.13;1.43;;;7.80;99.90;;;;;;5092890;28;20444;-82
2021/04/02 05:24:54;;;;;;;5.20;2.10;;;7.70;99.90;;;;;;5092700;28;20439;-81
2021/04/02 05:27:20;;;;;;;2.60;2.07;;;7.70;99.90;;;;;;5092699;28;20452;-81
2021/04/02 05:29:47;;;;;;;2.90;2.17;;;7.70;99.90;;;;;;5092689;28;20487;-81
2021/04/02 05:32:14;;;;;;;2.27;1.60;;;7.70;99.90;;;;;;5092507;28;20436;-81
2021/04/02 05:34:40;;;;;;;2.93;1.43;;;7.70;99.90;;;;;;5092695;28;20473;-81
2021/04/02 05:37:06;;;;;;;1.60;1.50;;;7.70;99.90;;;;;;5094889;28;20451;-81
2021/04/02 05:39:32;;;;;;;2.13;2.00;;;7.70;99.90;;;;;;5096072;28;20471;-81
2021/04/02 05:42:03;;;;;;;2.73;2.40;;;7.80;99.90;;;;;;5095844;28;20436;-81
2021/04/02 05:44:32;;;;;;;3.47;2.60;;;7.90;99.90;;;;;;5096244;28;20489;-81
2021/04/02 05:47:01;;;;;;;6.50;2.70;;;7.80;99.70;;;;;;5095729;28;20498;-81
2021/04/02 05:49:29;;;;;;;4.40;2.30;;;8.00;99.00;;;;;;5095746;28;20874;-82
2021/04/02 05:51:56;;;;;;;4.37;2.30;;;8.00;98.70;;;;;;5095910;28;20433;-81
2021/04/02 05:54:29;;;;;;;4.20;2.93;;;8.10;98.70;;;;;;5096107;28;20444;-81
2021/04/02 05:56:56;;;;;;;6.00;3.80;;;8.20;99.00;;;;;;5096079;28;20437;-81
2021/04/02 05:59:22;;;;;;;3.10;2.00;;;8.20;98.30;;;;;;5095832;28;20475;-81
2021/04/02 06:01:50;;;;;;;4.13;2.27;;;8.20;98.40;;;;;;5095579;28;20416;-81
2021/04/02 06:04:17;;;;;;;4.73;2.30;;;8.20;98.50;;;;;;5095550;28;20459;-81
2021/04/02 06:06:45;;;;;;;3.80;2.40;;;8.30;98.50;;;;;;5095662;28;20430;-81
2021/04/02 06:09:11;;;;;;;2.90;2.43;;;8.30;98.20;;;;;;5095482;28;20479;-81
2021/04/02 06:11:39;;;;;;;3.83;2.30;;;8.40;98.50;;;;;;5095737;28;20482;-81
2021/04/02 06:14:05;;;;;;;4.37;2.60;;;8.60;98.00;;;;;;5095675;28;20467;-81
2021/04/02 06:16:32;;;;;;;4.40;2.30;;;8.90;97.20;;;;;;5096185;28;20437;-81
2021/04/02 06:19:05;;;;;;;2.67;2.43;;;9.00;97.10;;;;;;5095292;28;20467;-81
2021/04/02 06:21:44;;;;;;;3.10;2.30;;;9.10;97.10;;;;;;5095532;28;20456;-81
2021/04/02 06:24:13;;;;;;;4.20;2.97;;;9.30;96.80;;;;;;5095480;28;20953;-81
2021/04/02 06:26:39;;;;;;;3.90;2.93;;;9.50;96.10;;;;;;5095260;28;20435;-81
2021/04/02 06:29:06;;;;;;;2.30;2.20;;;9.90;95.20;;;;;;5095092;28;20518;-81
2021/04/02 06:31:35;;;;;;;4.50;3.10;;;10.30;93.80;;;;;;5095040;28;20456;-81
2021/04/02 06:34:06;;;;;;;2.57;2.37;;;10.60;93.20;;;;;;5095287;28;20475;-81
2021/04/02 06:36:34;;;;;;;1.93;1.70;;;11.30;91.80;;;;;;5095081;28;20483;-81
2021/04/02 06:39:03;;;;;;;4.60;2.90;;;11.90;90.20;;;;;;5095025;28;20468;-81
2021/04/02 06:41:33;;;;;;;3.30;2.60;;;12.70;85.80;;;;;;5095046;28;20440;-81
2021/04/02 06:44:01;;;;;;;4.00;2.20;;;13.30;81.10;;;;;;5094660;28;20455;-81
2021/04/02 06:46:29;;;;;;;3.20;2.53;;;13.30;79.10;;;;;;5094175;28;20464;-81
2021/04/02 06:49:07;;;;;;;4.07;2.53;;;12.80;78.70;;;;;;5094885;28;20987;-81
2021/04/02 06:51:37;;;;;;;8.50;4.70;;;12.40;79.70;;;;;;5094779;28;20437;-81
2021/04/02 06:54:04;;;;;;;7.13;3.87;;;11.90;79.90;;;;;;5094738;28;20447;-81
2021/04/02 06:56:32;;;;;;;5.20;3.03;;;11.50;81.30;;;;;;5094506;28;20411;-81
2021/04/02 06:59:00;;;;;;;5.00;2.97;;;11.20;82.40;;;;;;5094562;28;20471;-81
2021/04/02 07:01:29;;;;;;;3.90;3.13;;;11.20;84.50;;;;;;5094500;28;20444;-80
2021/04/02 07:03:56;;;;;;;4.40;3.40;;;11.10;83.80;;;;;;5094323;28;20428;-81
2021/04/02 07:06:24;;;;;;;4.30;2.50;;;11.10;83.90;;;;;;5094564;28;20405;-81
2021/04/02 07:08:52;;;;;;;2.87;2.67;;;11.10;83.60;;;;;;5094310;28;20487;-81
2021/04/02 07:11:19;;;;;;;3.87;3.13;;;11.40;81.90;;;;;;5094464;28;20485;-81
2021/04/02 07:13:49;;;;;;;5.47;3.50;;;11.30;81.90;;;;;;5094049;28;20950;-81
2021/04/02 07:16:17;;;;;;;3.33;2.90;;;11.40;82.30;;;;;;5094451;28;20436;-81
2021/04/02 07:18:43;;;;;;;4.20;3.00;;;11.50;80.20;;;;;;5094576;28;20525;-78
2021/04/02 07:21:10;;;;;;;3.20;3.00;;;11.50;80.50;;;;;;5093985;28;20811;-78
2021/04/02 07:23:39;;;;;;;3.20;2.90;;;11.50;80.50;;;;;;5093766;28;20462;-78
2021/04/02 07:26:07;;;;;;;5.67;3.60;;;11.40;80.50;;;;;;5094099;28;20531;-78
2021/04/02 07:28:35;;;;;;;4.60;3.83;;;11.30;80.50;;;;;;5093869;28;20488;-78
2021/04/02 07:31:02;;;;;;;3.17;2.77;;;11.20;81.90;;;;;;5094084;28;20477;-78
2021/04/02 07:33:29;;;;;;;4.83;3.07;;;11.10;82.20;;;;;;5094079;28;20440;-78
2021/04/02 07:35:57;;;;;;;3.93;3.40;;;11.20;83.70;;;;;;5094216;28;20454;-78
2021/04/02 07:38:28;;;;;;;3.60;3.30;;;11.60;83.20;;;;;;5093914;28;20456;-78
2021/04/02 07:40:55;;;;;;;4.73;2.97;;;12.00;80.50;;;;;;5094134;28;20493;-78
2021/04/02 07:43:28;;;;;;;4.30;3.67;;;12.70;79.00;;;;;;5093778;28;20498;-78
2021/04/02 07:46:00;;;;;;;5.97;3.50;;;13.30;75.80;;;;;;5094290;28;20863;-78
2021/04/02 07:48:26;;;;;;;7.20;4.80;;;13.70;73.70;;;;;;5093950;28;20509;-78
2021/04/02 07:50:54;;;;;;;4.10;3.57;;;14.20;71.70;;;;;;5093935;28;20481;-78
2021/04/02 07:53:39;;;;;;;3.83;3.40;;;14.60;69.50;;;;;;5094079;28;20444;-78
2021/04/02 07:56:08;;;;;;;4.90;3.30;;;14.60;68.70;;;;;;5093870;28;20463;-78
2021/04/02 07:58:40;;;;;;;4.67;3.43;;;14.40;68.50;;;;;;5092804;28;20471;-78
2021/04/02 08:01:07;;;;;;;6.97;3.70;;;14.60;68.30;;;;;;5093952;28;20428;-79
2021/04/02 08:03:34;;;;;;;4.77;4.27;;;14.70;67.70;;;;;;5093740;28;20450;-79
2021/04/02 08:06:03;;;;;;;4.80;4.30;;;14.70;66.90;;;;;;5093496;28;20462;-78
2021/04/02 08:08:40;;;;;;;5.50;4.97;;;14.80;66.10;;;;;;5093138;28;21100;-78
2021/04/02 08:11:09;;;;;;;5.17;4.67;;;14.70;65.50;;;;;;5093888;28;20424;-82
2021/04/02 08:13:54;;;;;;;4.90;4.40;;;14.50;66.50;;;;;;5094475;28;20460;-82
2021/04/02 08:16:37;;;;;;;4.40;4.00;;;14.00;68.20;;;;;;5093696;28;20509;-82
2021/04/02 08:19:04;;;;;;;5.10;4.60;;;14.00;67.00;;;;;;5093735;28;20963;-78
2021/04/02 08:21:31;;;;;;;7.90;4.70;;;13.80;68.10;;;;;;5093516;28;20436;-79
2021/04/02 08:23:58;;;;;;;7.07;5.00;;;13.60;69.30;;;;;;5093636;28;20491;-82
2021/04/02 08:26:30;;;;;;;6.00;5.03;;;13.80;68.90;;;;;;5093638;28;20436;-78
2021/04/02 08:28:57;;;;;;;5.63;4.87;;;13.70;68.80;;;;;;5093518;28;20487;-82
2021/04/02 08:31:24;;;;;;;6.70;5.00;;;13.60;68.60;;;;;;5094201;28;20433;-81
2021/04/02 08:33:52;;;;;;;6.20;4.90;;;13.50;68.90;;;;;;5093437;28;20409;-79
2021/04/02 08:36:19;;;;;;;7.47;5.00;;;13.40;70.20;;;;;;5093345;28;20444;-78
2021/04/02 08:38:47;;;;;;;6.60;4.57;;;13.60;69.10;;;;;;5093571;28;20464;-82
2021/04/02 08:41:18;;;;;;;7.30;4.83;;;13.60;68.80;;;;;;5093818;28;20436;-82
2021/04/02 08:43:44;;;;;;;5.60;4.80;;;13.80;68.70;;;;;;5093688;28;20527;-82
2021/04/02 08:46:11;;;;;;;6.40;4.60;;;13.90;68.60;;;;;;5093429;28;20447;-82
2021/04/02 08:48:38;;;;;;;5.57;4.60;;;14.20;67.50;;;;;;5093629;28;20483;-82
2021/04/02 08:51:05;;;;;;;5.60;4.20;;;14.20;67.40;;;;;;5093016;28;21002;-81
2021/04/02 08:53:39;;;;;;;9.53;4.83;;;14.30;66.80;;;;;;5092851;28;20964;-77
2021/04/02 08:56:06;;;;;;;6.90;5.27;;;14.60;67.50;;;;;;5093187;28;20438;-78
2021/04/02 08:58:34;;;;;;;10.03;5.40;;;15.00;66.20;;;;;;5092873;28;20475;-78
2021/04/02 09:01:01;;;;;;;5.00;4.57;;;15.80;63.80;;;;;;5093219;28;20455;-78
2021/04/02 09:03:28;;;;;;;6.47;4.93;;;16.60;62.70;;;;;;5092735;28;20444;-78
2021/04/02 09:05:55;;;;;;;5.60;5.00;;;18.50;58.90;;;;;;5092770;28;20935;-77
2021/04/02 09:08:22;;;;;;;5.77;5.23;;;20.70;52.70;;;;;;5092803;28;20463;-78
2021/04/02 09:10:49;;;;;;;6.10;5.50;;;22.40;49.70;;;;;;5094770;28;20745;-78
2021/04/02 09:13:26;;;;;;;7.50;4.93;;;23.70;45.10;;;;;;5096688;28;20239;-78
2021/04/02 09:15:52;;;;;;;5.85;5.22;;;24.60;42.30;;;;;;5096789;28;20188;-78
2021/04/02 09:18:26;;;;;;;5.53;5.07;;;24.90;41.20;;;;;;5096591;28;20240;-78
2021/04/02 09:20:55;;;;;;;6.43;5.30;;;25.00;40.40;;;;;;5096315;28;20182;-78
2021/04/02 09:23:21;;;;;;;6.97;6.00;;;24.80;39.90;;;;;;5096876;28;20555;-82
2021/04/02 09:25:50;;;;;;;5.35;4.95;;;24.50;39.60;;;;;;5097106;28;20185;-82
2021/04/02 09:28:22;;;;;;;6.60;6.05;;;24.60;39.90;;;;;;5096702;28;20196;-82
2021/04/02 09:30:48;;;;;;;6.35;5.82;;;25.20;38.80;;;;;;5097256;28;20192;-82
2021/04/02 09:33:19;;;;;;;6.63;6.03;;;25.90;37.80;;;;;;5096922;28;20227;-79
2021/04/02 09:35:46;;;;;;;6.47;5.88;;;26.40;36.60;;;;;;5096139;28;20562;-79
2021/04/02 09:38:14;;;;;;;5.97;5.38;;;26.70;36.90;;;;;;5096311;28;20197;-79
2021/04/02 09:40:44;;;;;;;8.18;7.32;;;27.20;35.80;;;;;;5096335;28;20292;-79
2021/04/02 09:43:10;;;;;;;6.45;5.90;;;28.00;33.50;;;;;;5096162;28;20179;-79
2021/04/02 09:45:37;;;;;;;6.47;5.85;;;28.00;33.90;;;;;;5096405;28;20202;-83
2021/04/02 09:48:19;;;;;;;7.60;5.80;;;27.90;34.20;;;;;;5095873;28;20313;-78
2021/04/02 09:50:45;;;;;;;8.20;5.70;;;28.40;33.10;;;;;;5096205;28;20181;-79
2021/04/02 09:53:13;;;;;;;5.72;5.32;;;28.20;34.00;;;;;;5096500;28;20630;-82
2021/04/02 09:55:39;;;;;;;6.50;5.90;;;28.30;33.50;;;;;;5095809;28;20182;-78
2021/04/02 09:58:06;;;;;;;6.22;5.72;;;29.00;31.30;;;;;;5096042;28;20564;-77
2021/04/02 10:00:32;;;;;;;6.90;6.30;;;28.40;31.00;;;;;;5096026;28;20248;-78
2021/04/02 10:02:58;;;;;;;7.10;6.28;;;27.60;32.70;;;;;;5095956;28;20196;-79
2021/04/02 10:05:25;;;;;;;6.88;6.13;;;27.10;34.00;;;;;;5096092;28;20188;-82
2021/04/02 10:07:51;;;;;;;7.22;6.53;;;26.50;35.30;;;;;;5095823;28;20633;-79
2021/04/02 10:10:18;;;;;;;6.72;6.20;;;26.80;34.70;;;;;;5095645;28;20232;-79
2021/04/02 10:12:44;;;;;;;6.75;5.82;;;26.90;34.30;;;;;;5095347;28;20201;-79
2021/04/02 10:15:12;;;;;;;7.22;6.65;;;26.00;35.70;;;;;;5095648;28;20190;-78
2021/04/02 10:17:38;;;;;;;8.48;7.05;;;25.60;36.00;;;;;;5096031;28;20189;-79
2021/04/02 10:20:06;;;;;;;7.63;6.95;;;25.70;35.80;;;;;;5095866;28;20217;-79
2021/04/02 10:22:32;;;;;;;8.02;7.22;;;25.40;35.80;;;;;;5095278;28;20665;-78
2021/04/02 10:24:59;;;;;;;7.43;6.78;;;25.20;36.00;;;;;;5095147;28;20208;-78
2021/04/02 10:27:26;;;;;;;7.88;7.18;;;25.40;35.80;;;;;;5095610;28;20189;-77
2021/04/02 10:29:53;;;;;;;8.35;6.50;;;25.10;36.00;;;;;;5095231;28;20229;-78
2021/04/02 10:32:19;;;;;;;7.75;6.63;;;24.80;36.90;;;;;;5095420;28;20273;-78
2021/04/02 10:34:45;;;;;;;7.85;6.93;;;25.20;36.10;;;;;;5095285;28;20230;-78
2021/04/02 10:37:12;;;;;;;7.00;6.30;;;25.00;35.80;;;;;;5094720;28;20189;-78
2021/04/02 10:39:38;;;;;;;8.75;6.97;;;24.40;37.10;;;;;;5095073;28;20308;-78
2021/04/02 10:42:05;;;;;;;8.52;7.60;;;24.90;36.80;;;;;;5094914;28;20582;-78
2021/04/02 10:44:32;;;;;;;7.43;6.72;;;25.00;36.20;;;;;;5094932;28;20669;-78
2021/04/02 10:46:59;;;;;;;7.43;6.72;;;25.20;36.00;;;;;;5095928;28;20233;-82
2021/04/02 10:49:25;;;;;;;7.90;7.10;;;24.40;36.60;;;;;;5095968;28;20233;-82
2021/04/02 10:51:51;;;;;;;6.32;5.82;;;24.90;35.70;;;;;;5094951;28;20182;-82
2021/04/02 10:54:18;;;;;;;6.82;6.22;;;25.60;35.50;;;;;;5095494;28;20189;-82
2021/04/02 10:56:44;;;;;;;7.30;6.30;;;26.10;34.00;;;;;;5090144;28;20201;-83
2021/04/02 10:59:12;;;;;;;7.22;6.50;;;26.80;32.90;;;;;;5094510;28;20240;-82
2021/04/02 11:01:39;;;;;;;6.60;6.00;;;27.10;31.90;;;;;;5092104;28;20197;-78
2021/04/02 11:04:06;;;;;;;6.43;5.93;;;27.10;31.60;;;;;;5079349;28;20189;-82
2021/04/02 11:06:32;;;;;;;8.07;7.38;;;26.70;32.60;;;;;;5092006;28;20185;-81
2021/04/02 11:08:59;;;;;;;6.50;5.90;;;25.60;33.90;;;;;;5094731;28;20236;-82
2021/04/02 11:11:25;;;;;;;6.28;5.78;;;25.00;34.40;;;;;;5091391;28;20282;-81
2021/04/02 11:13:52;;;;;;;7.32;6.63;;;23.70;33.80;;;;;;5087404;28;20680;-82
2021/04/02 11:16:18;;;;;;;7.60;6.50;;;22.50;36.80;;;;;;5090168;28;20201;-81
2021/04/02 11:18:46;;;;;;;7.33;6.63;;;21.50;37.90;;;;;;5080263;28;20320;-81
2021/04/02 11:21:14;;;;;;;9.33;7.40;;;20.70;39.00;;;;;;5092425;28;20443;-82
2021/04/02 11:23:40;;;;;;;9.00;6.87;;;20.10;40.20;;;;;;5094367;28;20780;-84
2021/04/02 11:26:07;;;;;;;8.40;6.77;;;19.50;41.40;;;;;;5094663;28;20440;-84
2021/04/02 11:28:34;;;;;;;7.47;6.77;;;19.20;43.80;;;;;;5093710;28;20471;-83
2021/04/02 11:31:00;;;;;;;7.63;6.57;;;18.90;42.60;;;;;;5094716;28;20467;-83
2021/04/02 11:33:26;;;;;;;7.47;6.50;;;18.60;44.00;;;;;;5094651;28;20440;-83
2021/04/02 11:35:53;;;;;;;6.57;5.90;;;18.40;44.20;;;;;;5094304;28;20956;-84
2021/04/02 11:38:20;;;;;;;6.93;6.30;;;18.30;43.10;;;;;;5094495;28;20432;-83
2021/04/02 11:40:46;;;;;;;7.57;6.00;;;17.80;43.70;;;;;;5094283;28;20443;-83
2021/04/02 11:43:12;;;;;;;8.40;6.13;;;17.60;45.10;;;;;;5094137;28;20443;-83
2021/04/02 11:45:39;;;;;;;6.40;5.80;;;17.30;43.30;;;;;;5093570;28;20425;-86
2021/04/02 11:48:06;;;;;;;5.93;5.37;;;17.10;44.50;;;;;;5092812;28;21024;-84
2021/04/02 11:50:32;;;;;;;6.97;6.27;;;16.90;45.20;;;;;;5093280;28;20970;-83
2021/04/02 11:52:59;;;;;;;6.90;6.20;;;16.90;45.20;;;;;;5094485;28;20438;-83
2021/04/02 11:55:26;;;;;;;7.13;5.77;;;16.80;45.80;;;;;;5090740;28;20427;-83
2021/04/02 11:57:52;;;;;;;5.93;5.33;;;16.80;46.50;;;;;;5094212;28;20944;-83
2021/04/02 12:00:21;;;;;;;7.00;5.83;;;16.80;46.00;;;;;;5094573;28;20958;-83
2021/04/02 12:02:47;;;;;;;5.93;5.43;;;16.60;45.10;;;;;;5093806;28;20954;-84
2021/04/02 12:05:14;;;;;;;5.63;5.13;;;16.50;45.70;;;;;;5094186;28;20431;-83
2021/04/02 12:07:41;;;;;;;7.60;5.30;;;16.40;45.40;;;;;;5094294;28;20526;-86
2021/04/02 12:10:09;;;;;;;7.90;5.60;;;16.30;45.60;;;;;;5094092;28;20476;-84
2021/04/02 12:12:36;;;;;;;5.90;5.30;;;16.00;46.50;;;;;;5093810;28;20417;-83
2021/04/02 12:15:02;;;;;;;6.90;5.60;;;16.00;45.90;;;;;;5094193;28;20429;-84
2021/04/02 12:17:29;;;;;;;7.30;6.03;;;15.90;46.40;;;;;;5094030;28;20428;-84
2021/04/02 12:19:55;;;;;;;6.47;5.70;;;15.70;47.00;;;;;;5094046;28;20478;-83
2021/04/02 12:22:22;;;;;;;6.60;5.90;;;15.50;47.30;;;;;;5094414;28;20448;-84
2021/04/02 12:24:48;;;;;;;6.53;5.57;;;15.30;48.00;;;;;;5094903;28;20443;-84
2021/04/02 12:27:16;;;;;;;5.53;5.03;;;15.30;48.60;;;;;;5094286;28;20448;-84
2021/04/02 12:29:42;;;;;;;9.10;6.23;;;15.20;48.10;;;;;;5093975;28;20480;-84
2021/04/02 12:32:09;;;;;;;6.20;5.10;;;15.10;48.20;;;;;;5094148;28;20466;-84
2021/04/02 12:34:36;;;;;;;6.10;5.50;;;15.00;48.80;;;;;;5094151;28;20440;-84
2021/04/02 12:37:02;;;;;;;6.50;5.13;;;14.80;48.40;;;;;;5094259;28;20436;-84
2021/04/02 12:39:28;;;;;;;5.20;4.70;;;14.80;49.50;;;;;;5093645;28;20497;-84
2021/04/02 12:41:54;;;;;;;5.00;4.60;;;14.80;49.00;;;;;;5093892;28;20482;-83
2021/04/02 12:44:22;;;;;;;6.70;6.10;;;14.80;48.00;;;;;;5093934;28;20447;-84
2021/04/02 12:46:49;;;;;;;6.77;5.43;;;14.80;48.50;;;;;;5097633;28;20479;-84